createdAt,value
2022-08-07T00:01:44.609Z,100047.92
2022-08-07T00:04:15.817Z,100041.02
2022-08-07T00:06:51.803Z,100039.05
2022-08-07T00:09:22.592Z,100041.88
2022-08-07T00:11:55.787Z,100036.94
2022-08-07T00:14:31.383Z,100032.45
2022-08-07T00:17:02.586Z,100031.39
2022-08-07T00:19:34.047Z,100033.70
2022-08-07T00:22:03.307Z,100032.84
2022-08-07T00:24:31.940Z,100031.23
2022-08-07T00:27:07.170Z,100028.32
2022-08-07T00:29:37.099Z,100032.28
2022-08-07T00:32:06.838Z,100032.70
2022-08-07T00:34:35.381Z,100033.80
2022-08-07T00:37:05.049Z,100031.40
2022-08-07T00:39:36.559Z,100032.11
2022-08-07T00:42:13.533Z,100026.48
2022-08-07T00:44:42.525Z,100026.57
2022-08-07T00:47:15.674Z,100020.87
2022-08-07T00:50:21.453Z,100029.40
2022-08-07T00:52:47.424Z,100026.85
2022-08-07T00:55:17.410Z,100029.20
2022-08-07T00:57:56.032Z,100029.48
2022-08-07T01:00:25.228Z,100033.52
2022-08-07T01:02:54.750Z,100034.88
2022-08-07T01:05:24.649Z,100036.05
2022-08-07T01:07:53.442Z,100034.08
2022-08-07T01:10:23.965Z,100028.79
2022-08-07T01:12:54.812Z,100032.79
2022-08-07T01:16:00.672Z,100031.67
2022-08-07T01:18:16.650Z,100033.60
2022-08-07T01:20:59.647Z,100032.16
2022-08-07T01:23:38.456Z,100030.84
2022-08-07T01:26:14.142Z,100032.88
2022-08-07T01:28:51.142Z,100038.48
2022-08-07T01:31:41.762Z,100038.52
2022-08-07T01:34:14.710Z,100041.30
2022-08-07T01:36:52.814Z,100043.41
2022-08-07T01:39:41.116Z,100041.95
2022-08-07T01:42:56.988Z,100035.13
2022-08-07T01:45:37.133Z,100031.01
2022-08-07T01:48:29.868Z,100031.36
2022-08-07T01:51:24.588Z,100035.70
2022-08-07T01:54:09.571Z,100038.71
2022-08-07T01:56:53.567Z,100043.02
2022-08-07T01:59:36.334Z,100042.02
2022-08-07T02:02:32.462Z,100044.66
2022-08-07T02:05:16.049Z,100043.16
2022-08-07T02:08:04.909Z,100046.91
2022-08-07T02:10:42.319Z,100048.92
2022-08-07T02:13:14.464Z,100048.95
2022-08-07T02:15:53.111Z,100049.80
2022-08-07T02:18:25.971Z,100046.05
2022-08-07T02:21:00.697Z,100046.65
2022-08-07T02:23:40.441Z,100042.27
2022-08-07T02:26:31.267Z,100044.33
2022-08-07T02:28:58.703Z,100046.59
2022-08-07T02:31:33.023Z,100042.58
2022-08-07T02:34:11.089Z,100044.98
2022-08-07T02:36:49.030Z,100045.73
2022-08-07T02:39:43.477Z,100043.47
2022-08-07T02:42:10.111Z,100049.46
2022-08-07T02:44:48.722Z,100046.52
2022-08-07T02:47:45.225Z,100049.03
2022-08-07T02:50:18.770Z,100051.36
2022-08-07T02:53:03.294Z,100051.01
2022-08-07T02:56:03.128Z,100050.38
2022-08-07T02:58:27.249Z,100048.99
2022-08-07T03:00:58.425Z,100052.11
2022-08-07T03:03:50.083Z,100051.92
2022-08-07T03:06:25.994Z,100053.35
2022-08-07T03:09:04.917Z,100058.38
2022-08-07T03:11:38.534Z,100054.56
2022-08-07T03:14:10.891Z,100054.52
2022-08-07T03:16:40.630Z,100053.55
2022-08-07T03:19:11.645Z,100054.98
2022-08-07T03:21:45.594Z,100053.70
2022-08-07T03:24:27.036Z,100051.06
2022-08-07T03:27:02.275Z,100051.45
2022-08-07T03:29:46.025Z,100055.38
2022-08-07T03:32:39.687Z,100055.60
2022-08-07T03:35:26.158Z,100057.75
2022-08-07T03:38:02.146Z,100060.84
2022-08-07T03:40:36.491Z,100062.04
2022-08-07T03:43:13.679Z,100064.77
2022-08-07T03:45:47.648Z,100067.60
2022-08-07T03:48:19.467Z,100067.45
2022-08-07T03:50:56.001Z,100067.73
2022-08-07T03:54:06.000Z,100069.48
2022-08-07T03:56:33.011Z,100070.27
2022-08-07T03:59:09.365Z,100076.27
2022-08-07T04:01:46.814Z,100080.28
2022-08-07T04:04:18.618Z,100078.26
2022-08-07T04:06:52.312Z,100075.43
2022-08-07T04:09:24.786Z,100079.25
2022-08-07T04:12:23.771Z,100081.49
2022-08-07T04:14:49.193Z,100084.29
2022-08-07T04:17:20.937Z,100078.73
2022-08-07T04:19:54.271Z,100082.80
2022-08-07T04:22:29.283Z,100084.25
2022-08-07T04:25:02.037Z,100086.17
2022-08-07T04:27:35.563Z,100087.27
2022-08-07T04:30:20.994Z,100085.64
2022-08-07T04:32:58.537Z,100087.87
2022-08-07T04:35:35.476Z,100088.14
2022-08-07T04:38:11.457Z,100090.23
2022-08-07T04:40:52.218Z,100089.65
2022-08-07T04:44:12.690Z,100090.63
2022-08-07T04:46:59.717Z,100088.73
2022-08-07T04:49:37.669Z,100089.77
2022-08-07T04:53:16.518Z,100086.02
2022-08-07T04:58:12.788Z,100078.85
2022-08-07T05:00:12.243Z,100085.16
2022-08-07T05:02:26.486Z,100089.90
2022-08-07T05:04:55.167Z,100093.58
2022-08-07T05:07:48.241Z,100090.98
2022-08-07T05:10:29.504Z,100093.77
2022-08-07T05:14:44.334Z,100096.44
2022-08-07T05:15:54.014Z,100094.33
2022-08-07T05:18:30.174Z,100097.53
2022-08-07T05:21:04.905Z,100100.15
2022-08-07T05:23:43.316Z,100099.55
2022-08-07T05:26:24.097Z,100101.11
2022-08-07T05:29:04.371Z,100106.33
2022-08-07T05:31:38.792Z,100107.56
2022-08-07T05:34:15.747Z,100108.58
2022-08-07T05:36:53.657Z,100113.56
2022-08-07T05:40:13.513Z,100112.79
2022-08-07T05:42:15.939Z,100111.02
2022-08-07T05:45:14.650Z,100112.15
2022-08-07T05:48:02.505Z,100112.45
2022-08-07T05:50:44.556Z,100114.00
2022-08-07T05:54:13.218Z,100115.52
2022-08-07T05:56:05.909Z,100114.63
2022-08-07T05:58:40.893Z,100116.02
2022-08-07T06:01:19.720Z,100120.07
2022-08-07T06:03:58.858Z,100119.48
2022-08-07T06:06:35.215Z,100120.63
2022-08-07T06:09:05.716Z,100123.20
2022-08-07T06:11:38.524Z,100120.00
2022-08-07T06:14:12.750Z,100121.06
2022-08-07T06:16:56.006Z,100124.83
2022-08-07T06:19:47.937Z,100126.42
2022-08-07T06:22:23.753Z,100131.31
2022-08-07T06:25:03.011Z,100126.79
2022-08-07T06:27:44.427Z,100127.60
2022-08-07T06:30:24.113Z,100128.04
2022-08-07T06:33:01.575Z,100126.00
2022-08-07T06:35:45.260Z,100124.50
2022-08-07T06:38:20.269Z,100129.35
2022-08-07T06:40:56.408Z,100131.55
2022-08-07T06:43:39.472Z,100129.20
2022-08-07T06:46:15.880Z,100130.45
2022-08-07T06:49:04.413Z,100136.63
2022-08-07T06:51:49.348Z,100134.84
2022-08-07T06:55:30.203Z,100129.67
2022-08-07T06:57:11.397Z,100121.63
2022-08-07T07:00:14.212Z,100120.07
2022-08-07T07:02:54.529Z,100121.76
2022-08-07T07:06:02.440Z,100121.30
2022-08-07T07:08:18.872Z,100122.34
2022-08-07T07:10:56.921Z,100121.67
2022-08-07T07:13:57.866Z,100128.45
2022-08-07T07:16:38.927Z,100127.09
2022-08-07T07:19:56.309Z,100122.20
2022-08-07T07:22:33.988Z,100119.46
2022-08-07T07:24:57.008Z,100113.63
2022-08-07T07:28:02.178Z,100113.63
2022-08-07T07:30:38.721Z,100119.38
2022-08-07T07:33:12.770Z,100117.55
2022-08-07T07:35:54.626Z,100121.09
2022-08-07T07:38:34.860Z,100119.80
2022-08-07T07:41:09.368Z,100120.98
2022-08-07T07:44:14.670Z,100119.51
2022-08-07T07:46:53.912Z,100115.30
2022-08-07T07:50:35.391Z,100115.57
2022-08-07T07:52:17.408Z,100119.52
2022-08-07T07:54:51.370Z,100120.30
2022-08-07T07:57:50.368Z,100126.52
2022-08-07T08:00:21.032Z,100109.98
2022-08-07T08:03:08.187Z,100107.27
2022-08-07T08:05:50.965Z,100109.68
2022-08-07T08:08:36.958Z,100113.99
2022-08-07T08:11:16.468Z,100112.79
2022-08-07T08:13:58.206Z,100111.20
2022-08-07T08:16:38.154Z,100113.75
2022-08-07T08:20:15.600Z,100114.34
2022-08-07T08:22:18.021Z,100112.34
2022-08-07T08:25:24.636Z,100112.16
2022-08-07T08:28:03.698Z,100111.17
2022-08-07T08:30:37.515Z,100112.41
2022-08-07T08:33:19.120Z,100116.94
2022-08-07T08:35:56.101Z,100116.81
2022-08-07T08:38:30.054Z,100113.02
2022-08-07T08:41:19.382Z,100117.23
2022-08-07T08:44:08.853Z,100115.71
2022-08-07T08:46:55.261Z,100117.39
2022-08-07T08:50:05.374Z,100119.45
2022-08-07T08:52:40.984Z,100122.72
2022-08-07T08:55:55.458Z,100124.42
2022-08-07T08:58:42.128Z,100129.94
2022-08-07T09:01:43.849Z,100125.73
2022-08-07T09:04:35.617Z,100118.13
2022-08-07T09:07:16.941Z,100118.16
2022-08-07T09:10:24.085Z,100124.04
2022-08-07T09:13:09.666Z,100120.55
2022-08-07T09:16:22.697Z,100118.52
2022-08-07T09:19:00.700Z,100114.89
2022-08-07T09:21:34.348Z,100109.02
2022-08-07T09:24:55.992Z,100107.88
2022-08-07T09:28:00.563Z,100106.54
2022-08-07T09:30:46.342Z,100105.58
2022-08-07T09:33:52.972Z,100099.94
2022-08-07T09:36:35.622Z,100094.66
2022-08-07T09:39:53.589Z,100091.05
2022-08-07T09:42:22.954Z,100089.16
2022-08-07T09:46:28.737Z,100078.52
2022-08-07T09:48:15.182Z,100083.67
2022-08-07T09:51:01.737Z,100082.17
2022-08-07T09:53:41.288Z,100078.02
2022-08-07T09:56:37.547Z,100073.72
2022-08-07T09:59:35.867Z,100069.48
2022-08-07T10:02:29.594Z,100060.16
2022-08-07T10:05:58.067Z,100053.56
2022-08-07T10:08:21.616Z,100059.36
2022-08-07T10:11:17.287Z,100058.78
2022-08-07T10:14:23.127Z,100057.79
2022-08-07T10:17:17.991Z,100057.79
2022-08-07T10:20:12.911Z,100055.88
2022-08-07T10:23:12.231Z,100055.51
2022-08-07T10:25:56.172Z,100053.72
2022-08-07T10:28:58.210Z,100053.60
2022-08-07T10:31:38.718Z,100052.70
2022-08-07T10:34:37.671Z,100051.60
2022-08-07T10:37:15.395Z,100050.84
2022-08-07T10:40:12.644Z,100050.77
2022-08-07T10:43:13.155Z,100047.42
2022-08-07T10:45:58.245Z,100043.07
2022-08-07T10:48:51.945Z,100038.45
2022-08-07T10:51:57.344Z,100029.96
2022-08-07T10:54:36.168Z,100021.73
2022-08-07T10:57:34.134Z,100022.95
2022-08-07T11:00:10.055Z,100019.89
2022-08-07T11:03:12.628Z,100013.39
2022-08-07T11:06:01.637Z,100011.98
2022-08-07T11:08:41.176Z,100012.45
2022-08-07T11:11:35.694Z,100010.02
2022-08-07T11:14:45.761Z,100003.42
2022-08-07T11:17:13.716Z,100002.50
2022-08-07T11:20:03.884Z,100002.33
2022-08-07T11:22:46.374Z,99997.05
2022-08-07T11:25:30.849Z,99993.63
2022-08-07T11:28:15.316Z,99990.45
2022-08-07T11:31:11.439Z,99989.94
2022-08-07T11:34:04.286Z,99984.99
2022-08-07T11:36:41.267Z,99981.88
2022-08-07T11:39:20.439Z,99976.70
2022-08-07T11:42:03.204Z,99976.29
2022-08-07T11:44:52.392Z,99967.45
2022-08-07T11:47:59.364Z,99969.67
2022-08-07T11:50:57.145Z,99964.77
2022-08-07T11:54:09.706Z,99956.73
2022-08-07T11:56:57.274Z,99953.55
2022-08-07T12:00:10.852Z,99958.97
2022-08-07T12:03:02.769Z,99960.09
2022-08-07T12:08:42.516Z,99955.52
2022-08-07T12:11:32.379Z,99949.98
2022-08-07T12:14:11.729Z,99946.52
2022-08-07T12:16:55.059Z,99946.41
2022-08-07T12:19:56.521Z,99942.83
2022-08-07T12:22:58.281Z,99933.73
2022-08-07T12:26:03.422Z,99932.76
2022-08-07T12:29:06.404Z,99935.98
2022-08-07T12:32:19.838Z,99938.70
2022-08-07T12:34:55.597Z,99936.82
2022-08-07T12:37:28.391Z,99935.67
2022-08-07T12:43:58.789Z,99920.73
2022-08-07T12:46:15.879Z,99917.25
2022-08-07T12:49:00.397Z,99916.85
2022-08-07T12:52:13.652Z,99917.73
2022-08-07T12:55:05.306Z,99918.89
2022-08-07T12:58:01.203Z,99912.06
2022-08-07T13:01:05.970Z,99906.50
2022-08-07T13:04:02.167Z,99915.02
2022-08-07T13:07:02.010Z,99913.29
2022-08-07T13:10:38.086Z,99909.89
2022-08-07T13:13:57.615Z,99907.98
2022-08-07T13:16:54.444Z,99896.64
2022-08-07T13:19:51.566Z,99901.95
2022-08-07T13:22:42.173Z,99895.98
2022-08-07T13:25:54.188Z,99893.64
2022-08-07T13:28:35.993Z,99891.53
2022-08-07T13:31:13.742Z,99886.77
2022-08-07T13:34:34.475Z,99883.59
2022-08-07T13:36:49.360Z,99883.90
2022-08-07T13:40:33.117Z,99882.66
2022-08-07T13:42:26.053Z,99881.01
2022-08-07T13:46:07.022Z,99876.04
2022-08-07T13:48:06.221Z,99877.30
2022-08-07T13:50:44.854Z,99874.23
2022-08-07T13:53:59.499Z,99871.81
2022-08-07T13:56:36.170Z,99872.66
2022-08-07T13:59:19.002Z,99870.25
2022-08-07T14:02:10.458Z,99867.30
2022-08-07T14:04:49.581Z,99865.31
2022-08-07T14:07:23.042Z,99863.48
2022-08-07T14:10:16.311Z,99864.23
2022-08-07T14:12:57.081Z,99859.95
2022-08-07T14:15:34.893Z,99859.90
2022-08-07T14:18:23.468Z,99854.50
2022-08-07T14:21:08.476Z,99855.45
2022-08-07T14:24:01.273Z,99852.23
2022-08-07T14:26:50.351Z,99846.73
2022-08-07T14:30:05.164Z,99849.04
2022-08-07T14:32:15.552Z,99843.65
2022-08-07T14:34:47.408Z,99843.77
2022-08-07T14:37:36.005Z,99841.09
2022-08-07T14:40:26.604Z,99835.39
2022-08-07T14:43:55.240Z,99835.10
2022-08-07T14:45:57.617Z,99833.98
2022-08-07T14:48:35.006Z,99837.27
2022-08-07T14:51:15.821Z,99834.49
2022-08-07T14:54:05.740Z,99833.23
2022-08-07T14:56:41.307Z,99830.20
2022-08-07T15:02:33.001Z,99828.57
2022-08-07T15:05:01.696Z,99825.89
2022-08-07T15:07:50.871Z,99824.23
2022-08-07T15:10:26.274Z,99829.67
2022-08-07T15:13:06.673Z,99823.24
2022-08-07T15:15:42.975Z,99820.52
2022-08-07T15:18:33.905Z,99820.68
2022-08-07T15:21:43.920Z,99821.73
2022-08-07T15:27:04.349Z,99815.90
2022-08-07T15:30:10.283Z,99817.39
2022-08-07T15:32:39.990Z,99817.77
2022-08-07T15:36:02.062Z,99814.44
2022-08-07T15:38:31.169Z,99819.67
2022-08-07T15:41:24.384Z,99814.72
2022-08-07T15:44:03.442Z,99817.97
2022-08-07T15:46:38.429Z,99819.50
2022-08-07T15:49:14.655Z,99813.48
2022-08-07T15:54:40.619Z,99815.15
2022-08-07T15:57:39.365Z,99817.13
2022-08-07T16:00:09.402Z,99812.58
2022-08-07T16:02:59.271Z,99809.98
2022-08-07T16:05:31.150Z,99813.77
2022-08-07T16:08:30.579Z,99817.39
2022-08-07T16:11:26.371Z,99815.52
2022-08-07T16:14:03.110Z,99815.63
2022-08-07T16:16:51.487Z,99816.91
2022-08-07T16:19:58.920Z,99818.41
2022-08-07T16:22:55.328Z,99815.86
2022-08-07T16:25:52.227Z,99813.13
2022-08-07T16:29:18.280Z,99808.64
2022-08-07T16:32:05.203Z,99808.00
2022-08-07T16:34:48.120Z,99804.59
2022-08-07T16:38:06.869Z,99803.75
2022-08-07T16:40:32.148Z,99805.86
2022-08-07T16:44:04.343Z,99804.60
2022-08-07T16:47:07.779Z,99807.06
2022-08-07T16:50:29.091Z,99809.40
2022-08-07T16:52:55.869Z,99811.67
2022-08-07T16:55:47.070Z,99812.63
2022-08-07T16:58:33.650Z,99814.52
2022-08-07T17:01:29.224Z,99818.22
2022-08-07T17:04:12.590Z,99820.67
2022-08-07T17:07:03.257Z,99821.30
2022-08-07T17:10:05.316Z,99824.39
2022-08-07T17:13:03.579Z,99819.70
2022-08-07T17:16:09.191Z,99817.39
2022-08-07T17:18:52.418Z,99820.21
2022-08-07T17:21:27.351Z,99824.16
2022-08-07T17:24:59.423Z,99822.50
2022-08-07T17:27:36.467Z,99824.58
2022-08-07T17:31:16.353Z,99819.82
2022-08-07T17:34:15.212Z,99821.70
2022-08-07T17:36:59.745Z,99825.85
2022-08-07T17:40:03.101Z,99826.50
2022-08-07T17:42:59.116Z,99825.51
2022-08-07T17:45:31.815Z,99823.39
2022-08-07T17:48:30.710Z,99819.67
2022-08-07T17:51:16.372Z,99822.54
2022-08-07T17:54:14.508Z,99825.89
2022-08-07T17:57:56.678Z,99824.06
2022-08-07T18:00:33.375Z,99824.38
2022-08-07T18:04:03.753Z,99824.71
2022-08-07T18:06:36.809Z,99822.25
2022-08-07T18:09:08.666Z,99820.29
2022-08-07T18:12:17.690Z,99824.95
2022-08-07T18:14:45.081Z,99826.84
2022-08-07T18:18:47.225Z,99825.58
2022-08-07T18:21:10.002Z,99831.23
2022-08-07T18:24:33.164Z,99828.36
2022-08-07T18:27:08.450Z,99836.18
2022-08-07T18:30:04.227Z,99840.13
2022-08-07T18:32:55.177Z,99843.60
2022-08-07T18:36:06.000Z,99846.21
2022-08-07T18:38:57.834Z,99845.75
2022-08-07T18:41:46.326Z,99843.15
2022-08-07T18:44:20.648Z,99842.29
2022-08-07T18:47:06.061Z,99841.73
2022-08-07T18:50:19.686Z,99842.69
2022-08-07T18:53:04.817Z,99850.55
2022-08-07T18:55:57.105Z,99847.90
2022-08-07T18:58:33.135Z,99850.26
2022-08-07T19:01:06.018Z,99851.53
2022-08-07T19:03:41.924Z,99852.80
2022-08-07T19:06:21.635Z,99852.12
2022-08-07T19:09:55.695Z,99852.59
2022-08-07T19:12:20.333Z,99854.04
2022-08-07T19:16:05.586Z,99858.27
2022-08-07T19:18:35.215Z,99860.25
2022-08-07T19:21:44.263Z,99861.80
2022-08-07T19:24:30.516Z,99863.14
2022-08-07T19:28:57.179Z,99862.63
2022-08-07T19:31:06.042Z,99861.02
2022-08-07T19:32:59.236Z,99864.20
2022-08-07T19:35:33.568Z,99862.92
2022-08-07T19:38:16.872Z,99866.00
2022-08-07T19:40:50.745Z,99864.83
2022-08-07T19:43:43.924Z,99871.48
2022-08-07T19:46:26.343Z,99869.89
2022-08-07T19:49:05.771Z,99866.98
2022-08-07T19:51:53.054Z,99872.79
2022-08-07T19:54:34.121Z,99874.70
2022-08-07T19:58:04.126Z,99874.89
2022-08-07T20:00:29.632Z,99874.70
2022-08-07T20:03:35.592Z,99870.62
2022-08-07T20:06:02.190Z,99866.55
2022-08-07T20:08:36.584Z,99868.30
2022-08-07T20:11:14.962Z,99867.79
2022-08-07T20:13:50.184Z,99874.58
2022-08-07T20:16:32.204Z,99868.89
2022-08-07T20:19:11.090Z,99872.54
2022-08-07T20:21:47.495Z,99872.05
2022-08-07T20:24:23.688Z,99872.61
2022-08-07T20:27:02.515Z,99872.70
2022-08-07T20:29:57.489Z,99868.38
2022-08-07T20:32:39.718Z,99870.92
2022-08-07T20:35:17.816Z,99870.60
2022-08-07T20:37:58.804Z,99867.95
2022-08-07T20:40:34.360Z,99868.52
2022-08-07T20:43:09.672Z,99866.99
2022-08-07T20:46:27.590Z,99868.36
2022-08-07T20:48:37.575Z,99868.61
2022-08-07T20:51:09.827Z,99873.10
2022-08-07T20:54:02.909Z,99873.64
2022-08-07T20:56:32.250Z,99871.52
2022-08-07T20:59:06.420Z,99872.63
2022-08-07T21:01:58.527Z,99871.10
2022-08-07T21:04:31.447Z,99867.63
2022-08-07T21:07:03.990Z,99869.10
2022-08-07T21:09:53.018Z,99868.61
2022-08-07T21:12:31.088Z,99872.76
2022-08-07T21:15:06.430Z,99872.27
2022-08-07T21:18:20.466Z,99875.20
2022-08-07T21:20:33.128Z,99876.31
2022-08-07T21:23:09.006Z,99875.52
2022-08-07T21:25:52.260Z,99876.76
2022-08-07T21:29:02.427Z,99875.99
2022-08-07T21:32:10.929Z,99876.79
2022-08-07T21:34:51.919Z,99881.80
2022-08-07T21:37:57.939Z,99881.88
2022-08-07T21:40:45.860Z,99883.91
2022-08-07T21:43:23.044Z,99883.67
2022-08-07T21:46:08.650Z,99881.52
2022-08-07T21:48:56.760Z,99882.36
2022-08-07T21:51:28.281Z,99885.09
2022-08-07T21:54:18.837Z,99886.41
2022-08-07T21:57:08.762Z,99886.73
2022-08-07T22:00:05.009Z,99888.31
2022-08-07T22:02:55.276Z,99894.47
2022-08-07T22:05:46.278Z,99894.43
2022-08-07T22:08:20.932Z,99894.35
2022-08-07T22:11:00.202Z,99893.04
2022-08-07T22:13:52.442Z,99899.20
2022-08-07T22:16:41.681Z,99899.55
2022-08-07T22:19:31.646Z,99898.53
2022-08-07T22:22:28.852Z,99904.12
2022-08-07T22:25:11.141Z,99903.80
2022-08-07T22:28:29.338Z,99901.49
2022-08-07T22:31:59.087Z,99902.70
2022-08-07T22:34:12.909Z,99901.73
2022-08-07T22:36:56.487Z,99902.64
2022-08-07T22:39:56.234Z,99904.80
2022-08-07T22:42:31.393Z,99900.64
2022-08-07T22:45:10.910Z,99902.80
2022-08-07T22:48:13.618Z,99900.89
2022-08-07T22:51:23.058Z,99901.41
2022-08-07T22:54:22.241Z,99901.50
2022-08-07T22:57:16.823Z,99898.11
2022-08-07T22:59:49.991Z,99897.58
2022-08-07T23:02:37.869Z,99899.38
2022-08-07T23:06:15.736Z,99900.78
2022-08-07T23:08:47.909Z,99900.29
2022-08-07T23:11:59.038Z,99898.35
2022-08-07T23:14:47.536Z,99896.40
2022-08-07T23:17:41.817Z,99894.73
2022-08-07T23:20:54.799Z,99893.79
2022-08-07T23:24:05.740Z,99898.47
2022-08-07T23:26:42.141Z,99897.91
2022-08-07T23:30:38.187Z,99902.09
2022-08-07T23:34:33.303Z,99902.56
2022-08-07T23:36:34.410Z,99898.59
2022-08-07T23:39:09.511Z,99894.64
2022-08-07T23:42:08.559Z,99897.88
2022-08-07T23:44:46.766Z,99896.55
2022-08-07T23:47:42.307Z,99900.14
2022-08-07T23:50:33.806Z,99895.65
2022-08-07T23:53:51.899Z,99898.75
2022-08-07T23:56:35.051Z,99897.55
